Time;durP1;ratioP1;P1;durP2;ratioP2;P2;SDS_P1;SDS_P2;PMS_P1;PMS_P2;Temp;Humidity;BMP_temperature;BMP_pressure;BME280_temperature;BME280_humidity;BME280_pressure;Samples;Min_cycle;Max_cycle;Signal;HPM_P1;HPM_P2
2022/04/19 00:01:43;;;;;;;2.92;2.20;;;20.20;48.20;;;;;;5015867;28;20248;-68
2022/04/19 00:04:09;;;;;;;2.60;2.40;;;20.20;48.10;;;;;;5015917;28;20194;-68
2022/04/19 00:06:36;;;;;;;2.50;2.30;;;20.20;48.00;;;;;;5015808;28;20183;-68
2022/04/19 00:09:03;;;;;;;3.35;2.30;;;20.20;48.00;;;;;;5015688;28;20218;-68
2022/04/19 00:11:29;;;;;;;2.78;2.30;;;20.20;48.10;;;;;;4999281;28;20210;-68
2022/04/19 00:13:56;;;;;;;2.40;2.20;;;20.20;48.50;;;;;;5015565;28;20193;-68
2022/04/19 00:16:21;;;;;;;2.42;2.17;;;20.20;48.00;;;;;;5015623;28;20211;-68
2022/04/19 00:18:47;;;;;;;2.70;2.42;;;20.20;48.00;;;;;;4999223;28;20214;-68
2022/04/19 00:21:13;;;;;;;3.08;2.25;;;20.20;48.00;;;;;;5033155;28;20213;-68
2022/04/19 00:23:39;;;;;;;2.45;2.25;;;20.20;47.80;;;;;;4999426;28;20198;-68
2022/04/19 00:26:05;;;;;;;2.67;2.05;;;20.20;47.80;;;;;;5032179;28;20187;-68
2022/04/19 00:28:31;;;;;;;2.55;2.05;;;20.10;47.80;;;;;;4998773;28;20236;-68
2022/04/19 00:30:57;;;;;;;2.60;2.05;;;20.20;48.00;;;;;;5031854;28;20218;-68
2022/04/19 00:33:23;;;;;;;2.03;1.80;;;20.10;47.80;;;;;;5031720;28;20270;-68
2022/04/19 00:35:49;;;;;;;3.78;2.10;;;20.10;48.20;;;;;;4998972;28;20271;-68
2022/04/19 00:38:15;;;;;;;2.20;1.95;;;20.10;48.00;;;;;;5014966;28;20210;-68
2022/04/19 00:40:41;;;;;;;2.22;2.03;;;20.20;48.10;;;;;;5031961;28;20190;-68
2022/04/19 00:43:08;;;;;;;2.20;2.00;;;20.20;48.00;;;;;;5032777;28;20183;-68
2022/04/19 00:45:34;;;;;;;2.72;2.08;;;20.20;48.10;;;;;;5031512;28;20241;-69
2022/04/19 00:48:01;;;;;;;1.85;1.75;;;20.20;48.10;;;;;;5032527;28;20211;-68
2022/04/19 00:50:31;;;;;;;2.22;2.03;;;20.10;48.00;;;;;;5015091;28;20207;-68
2022/04/19 00:52:58;;;;;;;2.00;1.80;;;20.20;48.10;;;;;;5031780;28;20183;-68
2022/04/19 00:55:25;;;;;;;2.40;2.00;;;20.10;48.20;;;;;;5031742;28;20175;-68
2022/04/19 00:57:51;;;;;;;1.92;1.77;;;20.10;48.00;;;;;;5031147;28;20200;-69
2022/04/19 01:00:21;;;;;;;2.08;1.90;;;20.10;47.90;;;;;;4998682;28;20330;-68
2022/04/19 01:03:08;;;;;;;2.40;2.20;;;20.20;47.90;;;;;;5031290;28;20175;-69
2022/04/19 01:05:36;;;;;;;1.80;1.70;;;20.10;47.80;;;;;;5015067;28;20183;-68
2022/04/19 01:08:02;;;;;;;2.33;2.05;;;20.10;47.70;;;;;;4998083;28;20357;-68
2022/04/19 01:10:31;;;;;;;1.95;1.80;;;20.10;47.70;;;;;;5031047;28;20221;-68
2022/04/19 01:13:19;;;;;;;2.95;1.92;;;20.10;47.80;;;;;;5014713;28;20250;-68
2022/04/19 01:15:53;;;;;;;1.70;1.60;;;20.10;47.80;;;;;;5014575;28;20175;-68
2022/04/19 01:18:23;;;;;;;2.30;2.05;;;20.10;47.90;;;;;;4998440;28;20195;-69
2022/04/19 01:20:52;;;;;;;1.95;1.85;;;20.10;47.90;;;;;;5014821;28;20224;-68
2022/04/19 01:23:20;;;;;;;2.10;1.90;;;20.10;48.00;;;;;;5032264;28;20183;-68
2022/04/19 01:25:46;;;;;;;2.20;2.00;;;20.10;48.00;;;;;;4998655;28;20229;-69
2022/04/19 01:28:12;;;;;;;2.30;2.10;;;20.10;47.90;;;;;;4998323;28;20210;-68
2022/04/19 01:30:45;;;;;;;2.05;1.90;;;20.10;47.80;;;;;;5014545;28;20685;-68
2022/04/19 01:33:15;;;;;;;2.60;2.38;;;20.10;47.80;;;;;;5014461;28;20186;-68
2022/04/19 01:35:44;;;;;;;2.17;1.95;;;20.10;47.80;;;;;;5030872;28;20187;-68
2022/04/19 01:38:12;;;;;;;2.88;2.13;;;20.10;47.60;;;;;;5014201;28;20207;-69
2022/04/19 01:40:39;;;;;;;2.30;2.10;;;20.10;47.70;;;;;;5014682;28;20179;-68
2022/04/19 01:43:09;;;;;;;2.85;2.10;;;20.10;47.80;;;;;;5015320;28;20182;-68
2022/04/19 01:45:49;;;;;;;2.17;1.80;;;20.10;47.60;;;;;;5004104;28;20190;-68
2022/04/19 01:48:20;;;;;;;2.20;1.60;;;20.10;47.80;;;;;;5034593;28;20215;-68
2022/04/19 01:50:46;;;;;;;2.40;2.20;;;20.10;47.90;;;;;;5018349;28;20274;-68
2022/04/19 01:53:13;;;;;;;2.72;2.05;;;20.10;47.90;;;;;;5018300;28;20183;-68
2022/04/19 01:55:40;;;;;;;2.15;1.83;;;20.10;47.90;;;;;;5034954;28;20643;-68
2022/04/19 01:58:19;;;;;;;2.10;1.90;;;20.10;47.90;;;;;;5003657;28;20214;-68
2022/04/19 02:00:44;;;;;;;2.25;2.00;;;20.10;47.90;;;;;;5002086;28;20187;-69
2022/04/19 02:03:14;;;;;;;2.30;2.10;;;20.10;47.90;;;;;;5018488;28;20197;-68
2022/04/19 02:05:42;;;;;;;1.95;1.85;;;20.10;47.80;;;;;;5034384;28;20544;-68
2022/04/19 02:08:08;;;;;;;1.90;1.80;;;20.10;47.80;;;;;;5017502;28;20272;-68
2022/04/19 02:10:37;;;;;;;2.20;2.00;;;20.10;47.70;;;;;;5001878;28;20678;-68
2022/04/19 02:13:03;;;;;;;2.38;2.10;;;20.10;47.70;;;;;;5034447;28;20183;-68
2022/04/19 02:15:35;;;;;;;1.80;1.70;;;20.10;47.60;;;;;;5035921;28;20215;-68
2022/04/19 02:18:19;;;;;;;1.70;1.60;;;20.00;47.50;;;;;;5034021;28;20257;-68
2022/04/19 02:20:45;;;;;;;1.70;1.60;;;20.00;47.60;;;;;;5017685;28;20183;-68
2022/04/19 02:23:13;;;;;;;2.20;1.70;;;20.00;47.60;;;;;;5018142;28;20193;-68
2022/04/19 02:25:39;;;;;;;1.70;1.50;;;20.00;47.70;;;;;;5017879;28;20184;-69
2022/04/19 02:28:10;;;;;;;2.00;1.90;;;20.00;47.80;;;;;;5017304;28;20206;-68
2022/04/19 02:30:38;;;;;;;1.92;1.67;;;20.00;47.80;;;;;;5001795;28;20278;-68
2022/04/19 02:33:10;;;;;;;1.60;1.50;;;20.00;47.80;;;;;;5002090;28;20179;-68
2022/04/19 02:35:55;;;;;;;1.88;1.77;;;20.00;47.80;;;;;;5013489;28;20192;-68
2022/04/19 02:38:23;;;;;;;1.92;1.83;;;20.00;47.70;;;;;;4996457;28;20664;-68
2022/04/19 02:40:50;;;;;;;1.92;1.70;;;20.00;47.70;;;;;;4980525;28;20202;-68
2022/04/19 02:43:17;;;;;;;2.40;1.90;;;20.00;47.60;;;;;;4980572;28;20216;-71
2022/04/19 02:45:45;;;;;;;2.85;1.90;;;20.00;47.70;;;;;;4980548;28;20667;-69
2022/04/19 02:48:18;;;;;;;2.08;1.98;;;20.00;47.60;;;;;;4996881;28;20208;-69
2022/04/19 02:50:49;;;;;;;2.08;1.88;;;20.00;47.50;;;;;;5012791;28;20220;-68
2022/04/19 02:53:15;;;;;;;2.08;1.98;;;20.00;47.50;;;;;;4996371;28;20195;-69
2022/04/19 02:55:42;;;;;;;1.65;1.55;;;20.00;47.50;;;;;;4995246;28;20195;-68
2022/04/19 02:58:08;;;;;;;1.83;1.58;;;20.00;47.50;;;;;;4996067;28;20204;-68
2022/04/19 03:00:37;;;;;;;2.05;1.70;;;20.00;47.70;;;;;;4996568;28;20219;-68
2022/04/19 03:03:03;;;;;;;2.10;1.92;;;20.00;47.70;;;;;;4996090;28;20187;-68
2022/04/19 03:05:30;;;;;;;1.70;1.60;;;20.00;47.60;;;;;;4980039;28;20191;-68
2022/04/19 03:07:56;;;;;;;1.73;1.63;;;20.00;47.70;;;;;;5015043;28;20230;-68
2022/04/19 03:10:23;;;;;;;1.70;1.60;;;20.00;47.70;;;;;;5017143;28;20231;-68
2022/04/19 03:12:52;;;;;;;1.58;1.48;;;20.00;47.70;;;;;;4984534;28;20227;-68
2022/04/19 03:15:20;;;;;;;1.60;1.50;;;20.00;47.70;;;;;;5017251;28;20183;-68
2022/04/19 03:17:47;;;;;;;2.17;1.85;;;20.00;47.70;;;;;;5016713;28;20235;-68
2022/04/19 03:20:16;;;;;;;1.80;1.70;;;20.00;47.70;;;;;;5017200;28;20255;-68
2022/04/19 03:28:17;;;;;;;2.00;1.80;;;20.00;47.50;;;;;;5016548;28;20701;-68
2022/04/19 03:30:43;;;;;;;1.55;1.45;;;20.00;47.50;;;;;;5016404;28;20273;-68
2022/04/19 03:33:10;;;;;;;1.77;1.67;;;20.00;47.40;;;;;;5016764;28;20191;-68
2022/04/19 03:35:36;;;;;;;1.45;1.35;;;20.00;47.60;;;;;;5016707;28;20191;-68
2022/04/19 03:38:05;;;;;;;1.65;1.55;;;20.00;47.60;;;;;;5015980;28;20286;-68
2022/04/19 03:40:31;;;;;;;2.13;1.30;;;20.00;47.60;;;;;;5016281;28;20194;-68
2022/04/19 03:42:57;;;;;;;1.80;1.70;;;20.00;47.60;;;;;;5016283;28;20183;-68
2022/04/19 03:45:24;;;;;;;1.70;1.60;;;20.00;47.60;;;;;;5016464;28;20225;-68
2022/04/19 03:47:51;;;;;;;1.73;1.63;;;20.00;47.60;;;;;;5016095;28;20280;-68
2022/04/19 03:50:16;;;;;;;1.52;1.42;;;20.00;47.70;;;;;;5016209;28;20190;-68
2022/04/19 03:52:44;;;;;;;2.00;1.80;;;20.00;47.70;;;;;;5016354;28;20179;-68
2022/04/19 03:55:11;;;;;;;2.08;1.80;;;20.00;47.60;;;;;;5016084;28;20171;-68
2022/04/19 03:57:38;;;;;;;1.70;1.60;;;20.00;47.60;;;;;;5016021;28;20740;-68
2022/04/19 04:00:07;;;;;;;1.88;1.77;;;20.00;47.60;;;;;;5015949;28;20179;-68
2022/04/19 04:02:42;;;;;;;1.77;1.67;;;20.00;47.60;;;;;;5032566;28;20265;-68
2022/04/19 04:05:14;;;;;;;1.95;1.85;;;20.00;47.40;;;;;;5016718;28;20179;-68
2022/04/19 04:10:23;;;;;;;2.10;1.90;;;19.90;47.20;;;;;;4993419;28;20299;-70
2022/04/19 04:12:49;;;;;;;1.67;1.58;;;19.90;47.40;;;;;;4995072;28;20204;-70
2022/04/19 04:15:16;;;;;;;1.52;1.42;;;19.90;47.30;;;;;;4978629;28;20651;-70
2022/04/19 04:17:42;;;;;;;1.83;1.70;;;19.90;47.40;;;;;;4995301;28;20212;-71
2022/04/19 04:20:09;;;;;;;1.88;1.77;;;20.00;47.60;;;;;;4992002;28;20181;-71
2022/04/19 04:22:36;;;;;;;1.70;1.60;;;19.90;47.40;;;;;;4992094;28;20185;-71
2022/04/19 04:25:04;;;;;;;1.98;1.70;;;20.00;47.60;;;;;;4992011;28;20224;-72
2022/04/19 04:27:31;;;;;;;1.95;1.50;;;19.90;47.50;;;;;;4992296;28;20181;-70
2022/04/19 04:29:59;;;;;;;1.73;1.63;;;19.90;47.50;;;;;;4975591;28;20200;-70
2022/04/19 04:32:25;;;;;;;1.63;1.52;;;20.00;47.60;;;;;;4991244;28;20295;-70
2022/04/19 04:34:51;;;;;;;2.15;1.50;;;19.90;47.50;;;;;;4991673;28;20185;-70
2022/04/19 04:37:17;;;;;;;1.70;1.60;;;20.00;47.60;;;;;;4991775;28;20185;-70
2022/04/19 04:39:50;;;;;;;1.88;1.77;;;20.00;47.50;;;;;;4991744;28;20287;-70
2022/04/19 04:42:25;;;;;;;2.30;2.03;;;19.90;47.40;;;;;;4992128;28;20621;-70
2022/04/19 04:44:53;;;;;;;2.05;1.67;;;19.90;47.30;;;;;;4991899;28;20196;-70
2022/04/19 04:50:05;;;;;;;1.92;1.83;;;19.90;47.40;;;;;;4990715;28;20224;-70
2022/04/19 04:52:32;;;;;;;1.48;1.38;;;19.90;47.20;;;;;;4991723;28;20212;-70
2022/04/19 04:54:57;;;;;;;1.70;1.60;;;19.90;47.40;;;;;;4991512;28;20191;-71
2022/04/19 04:57:27;;;;;;;1.60;1.50;;;19.90;47.40;;;;;;4991868;28;20570;-70
2022/04/19 04:59:54;;;;;;;1.38;1.30;;;19.90;47.40;;;;;;4991356;28;20259;-70
2022/04/19 05:02:25;;;;;;;1.30;1.20;;;19.90;47.40;;;;;;4975543;28;20184;-70
2022/04/19 05:04:51;;;;;;;1.52;1.42;;;19.90;47.40;;;;;;4991591;28;20279;-70
2022/04/19 05:07:18;;;;;;;1.50;1.40;;;19.90;47.40;;;;;;4990528;28;20268;-70
2022/04/19 05:09:47;;;;;;;1.70;1.60;;;19.90;47.40;;;;;;4991139;28;20588;-71
2022/04/19 05:12:13;;;;;;;1.55;1.45;;;19.90;47.50;;;;;;4991220;28;20263;-71
2022/04/19 05:14:39;;;;;;;1.60;1.50;;;19.90;47.40;;;;;;4991444;28;20192;-70
2022/04/19 05:17:06;;;;;;;2.03;1.88;;;19.90;47.40;;;;;;4991203;28;20188;-70
2022/04/19 05:19:34;;;;;;;1.70;1.60;;;19.90;47.40;;;;;;4974644;28;20208;-70
2022/04/19 05:22:00;;;;;;;1.63;1.52;;;19.90;47.40;;;;;;4991125;28;20188;-71
2022/04/19 05:24:26;;;;;;;1.67;1.50;;;19.90;47.30;;;;;;4990795;28;20185;-70
2022/04/19 05:26:54;;;;;;;2.10;1.90;;;19.90;47.30;;;;;;4991069;28;20239;-71
2022/04/19 05:29:20;;;;;;;1.80;1.70;;;19.90;47.30;;;;;;4990829;28;20205;-70
2022/04/19 05:31:46;;;;;;;1.65;1.55;;;19.90;47.20;;;;;;4991413;28;20208;-70
2022/04/19 05:34:13;;;;;;;1.88;1.77;;;19.90;47.30;;;;;;4975698;28;20220;-70
2022/04/19 05:36:40;;;;;;;1.52;1.42;;;19.90;47.20;;;;;;4991670;28;20177;-70
2022/04/19 05:39:07;;;;;;;1.63;1.52;;;19.90;47.20;;;;;;4991434;28;20786;-70
2022/04/19 05:41:35;;;;;;;1.65;1.50;;;19.90;47.30;;;;;;4975512;28;20181;-70
2022/04/19 05:44:00;;;;;;;1.50;1.40;;;19.90;47.30;;;;;;4975461;28;20280;-70
2022/04/19 05:46:27;;;;;;;1.58;1.48;;;19.90;47.40;;;;;;4983297;28;20188;-70
2022/04/19 05:48:53;;;;;;;1.55;1.45;;;19.90;47.40;;;;;;4975193;28;20228;-70
2022/04/19 05:51:19;;;;;;;1.50;1.40;;;19.90;47.40;;;;;;4991369;28;20205;-71
2022/04/19 05:53:44;;;;;;;1.67;1.58;;;19.90;47.40;;;;;;4991749;28;20568;-70
2022/04/19 05:56:11;;;;;;;1.55;1.45;;;19.90;47.40;;;;;;4991352;28;20191;-70
2022/04/19 05:58:37;;;;;;;1.60;1.50;;;19.90;47.40;;;;;;4991294;28;20212;-70
2022/04/19 06:01:03;;;;;;;1.60;1.50;;;19.90;47.40;;;;;;4991666;28;20220;-70
2022/04/19 06:06:18;;;;;;;2.10;1.90;;;19.90;47.40;;;;;;4991509;28;20191;-70
2022/04/19 06:08:49;;;;;;;2.63;1.83;;;19.90;47.30;;;;;;4975195;28;20212;-70
2022/04/19 06:11:15;;;;;;;1.50;1.40;;;19.90;47.40;;;;;;4991261;28;20213;-70
2022/04/19 06:13:41;;;;;;;2.05;1.90;;;19.90;47.20;;;;;;4987025;28;20256;-70
2022/04/19 06:16:08;;;;;;;1.80;1.70;;;19.90;47.20;;;;;;4990839;28;20181;-70
2022/04/19 06:18:38;;;;;;;3.25;2.63;;;19.90;47.20;;;;;;4990571;28;20200;-67
2022/04/19 06:21:17;;;;;;;1.92;1.70;;;20.00;47.30;;;;;;4991573;28;20177;-70
2022/04/19 06:23:42;;;;;;;1.90;1.77;;;20.00;47.30;;;;;;4992784;28;20231;-68
2022/04/19 06:26:08;;;;;;;1.70;1.60;;;20.00;47.30;;;;;;4974996;28;20177;-70
2022/04/19 06:28:36;;;;;;;1.80;1.70;;;20.00;47.40;;;;;;4990933;28;20209;-69
2022/04/19 06:31:16;;;;;;;2.50;2.20;;;20.00;47.40;;;;;;4995251;28;20576;-70
2022/04/19 06:33:47;;;;;;;2.63;2.03;;;20.00;47.30;;;;;;4994787;28;20185;-70
2022/04/19 06:36:13;;;;;;;2.22;2.03;;;20.10;47.40;;;;;;4994864;28;20188;-70
2022/04/19 06:38:40;;;;;;;2.70;2.35;;;20.10;47.40;;;;;;4994678;28;20232;-70
2022/04/19 06:41:06;;;;;;;2.60;2.20;;;20.10;47.90;;;;;;4994530;28;20235;-70
2022/04/19 06:43:33;;;;;;;3.05;2.75;;;20.10;47.30;;;;;;4978262;28;20208;-70
2022/04/19 06:46:31;;;;;;;3.72;3.30;;;20.10;47.30;;;;;;4995165;28;20280;-70
2022/04/19 06:49:07;;;;;;;3.38;2.88;;;20.20;47.30;;;;;;4994290;28;20219;-70
2022/04/19 06:51:33;;;;;;;3.03;2.72;;;20.20;47.10;;;;;;4994245;28;20205;-70
2022/04/19 06:54:01;;;;;;;3.17;2.85;;;20.20;47.20;;;;;;4994633;28;20196;-72
2022/04/19 06:56:39;;;;;;;3.17;2.88;;;20.20;47.20;;;;;;4989200;28;20268;-70
2022/04/19 06:59:05;;;;;;;2.50;2.30;;;20.30;47.20;;;;;;4993852;28;20233;-70
2022/04/19 07:01:30;;;;;;;3.17;2.60;;;20.30;47.70;;;;;;4994608;28;20231;-70
2022/04/19 07:04:22;;;;;;;2.90;2.60;;;20.30;47.10;;;;;;4995246;28;20272;-70
2022/04/19 07:06:51;;;;;;;2.75;2.40;;;20.30;47.10;;;;;;4994333;28;20188;-70
2022/04/19 07:09:18;;;;;;;2.60;2.38;;;20.40;47.10;;;;;;4995356;28;20229;-70
2022/04/19 07:11:44;;;;;;;2.95;2.65;;;20.40;47.00;;;;;;4961832;28;20201;-70
2022/04/19 07:14:17;;;;;;;3.97;2.70;;;20.40;47.00;;;;;;4994353;28;20260;-70
2022/04/19 07:16:58;;;;;;;3.30;2.53;;;20.40;47.00;;;;;;4993535;28;20224;-69
2022/04/19 07:19:24;;;;;;;3.97;2.78;;;20.40;46.80;;;;;;4993706;28;20201;-69
2022/04/19 07:27:43;;;;;;;2.53;2.33;;;20.50;46.90;;;;;;5007679;28;20276;-71
2022/04/19 07:30:10;;;;;;;2.92;2.40;;;20.50;46.90;;;;;;4998552;28;20208;-70
2022/04/19 07:32:36;;;;;;;3.47;2.58;;;20.60;47.00;;;;;;4974984;28;20208;-70
2022/04/19 07:35:23;;;;;;;4.32;2.33;;;20.60;47.00;;;;;;4991258;28;20203;-70
2022/04/19 07:37:49;;;;;;;2.95;2.25;;;20.60;47.00;;;;;;4991081;28;20283;-70
2022/04/19 07:40:15;;;;;;;2.47;2.22;;;20.60;47.10;;;;;;4991188;28;20184;-70
2022/04/19 07:42:41;;;;;;;2.63;2.20;;;20.60;47.10;;;;;;4990793;28;20193;-70
2022/04/19 07:45:08;;;;;;;2.60;2.40;;;20.60;47.20;;;;;;4991064;28;20189;-70
2022/04/19 07:47:35;;;;;;;2.45;2.25;;;20.60;47.30;;;;;;4991340;28;20200;-70
2022/04/19 07:50:02;;;;;;;2.92;2.50;;;20.70;47.40;;;;;;4974553;28;20264;-70
2022/04/19 07:52:28;;;;;;;2.05;1.95;;;20.60;47.30;;;;;;4991105;28;20211;-70
2022/04/19 07:54:54;;;;;;;2.30;2.10;;;20.60;47.30;;;;;;4999090;28;20193;-70
2022/04/19 07:57:21;;;;;;;2.28;2.00;;;20.70;47.40;;;;;;4995945;28;20192;-70
2022/04/19 07:59:53;;;;;;;2.30;2.10;;;20.70;47.40;;;;;;4974642;28;20213;-70
2022/04/19 08:02:20;;;;;;;2.30;2.10;;;20.70;47.40;;;;;;4990649;28;20177;-70
2022/04/19 08:04:46;;;;;;;2.05;1.95;;;20.70;47.40;;;;;;4974431;28;20563;-70
2022/04/19 08:07:12;;;;;;;2.30;2.10;;;20.70;47.40;;;;;;4992467;28;20327;-70
2022/04/19 08:09:39;;;;;;;2.50;2.10;;;20.70;47.40;;;;;;4993033;28;20220;-70
2022/04/19 08:12:08;;;;;;;2.42;1.88;;;20.70;47.40;;;;;;4976861;28;20212;-69
2022/04/19 08:14:34;;;;;;;2.10;1.90;;;20.70;47.40;;;;;;4992668;28;20779;-70
2022/04/19 08:17:00;;;;;;;2.58;2.00;;;20.70;47.40;;;;;;4992741;28;20200;-70
2022/04/19 08:19:26;;;;;;;2.28;1.77;;;20.80;47.40;;;;;;4992754;28;20196;-70
2022/04/19 08:21:52;;;;;;;1.67;1.58;;;20.80;47.50;;;;;;4976562;28;20196;-70
2022/04/19 08:24:18;;;;;;;2.00;1.80;;;20.80;47.50;;;;;;4976216;28;20275;-72
2022/04/19 08:26:45;;;;;;;2.00;1.65;;;20.80;47.60;;;;;;4992503;28;20564;-71
2022/04/19 08:29:11;;;;;;;1.95;1.85;;;20.80;47.60;;;;;;4992147;28;20696;-71
2022/04/19 08:31:37;;;;;;;2.65;1.52;;;20.80;47.60;;;;;;4992269;28;20209;-71
2022/04/19 08:34:04;;;;;;;1.85;1.63;;;20.80;47.60;;;;;;4992398;28;20581;-71
2022/04/19 08:36:30;;;;;;;1.60;1.50;;;20.80;47.80;;;;;;4992902;28;20173;-71
2022/04/19 08:38:56;;;;;;;2.08;1.88;;;20.80;47.70;;;;;;4992174;28;20227;-71
2022/04/19 08:41:23;;;;;;;1.92;1.70;;;20.80;47.60;;;;;;4992245;28;20767;-71
2022/04/19 08:43:52;;;;;;;2.15;1.88;;;20.80;47.60;;;;;;4992202;28;20272;-71
2022/04/19 08:46:18;;;;;;;1.98;1.75;;;20.80;47.60;;;;;;4992667;28;20189;-71
2022/04/19 08:48:44;;;;;;;2.25;1.70;;;20.80;47.80;;;;;;4992333;28;20209;-70
2022/04/19 08:51:13;;;;;;;2.50;1.80;;;20.80;47.80;;;;;;4992159;28;20208;-71
2022/04/19 08:59:08;;;;;;;1.90;1.67;;;20.80;47.90;;;;;;4991960;28;20215;-71
2022/04/19 09:01:36;;;;;;;1.95;1.70;;;20.80;47.90;;;;;;4992202;28;20189;-71
2022/04/19 09:04:04;;;;;;;4.53;2.00;;;20.80;47.80;;;;;;4992025;28;20197;-71
2022/04/19 09:06:57;;;;;;;2.05;1.75;;;20.80;47.80;;;;;;4975860;28;20640;-71
2022/04/19 09:09:30;;;;;;;2.20;1.50;;;20.80;47.90;;;;;;4991721;28;20265;-72
2022/04/19 09:12:12;;;;;;;2.00;1.80;;;20.80;47.90;;;;;;4992189;28;20205;-71
2022/04/19 09:15:03;;;;;;;3.35;1.90;;;20.80;48.00;;;;;;4991967;28;20200;-72
2022/04/19 09:17:35;;;;;;;2.28;1.70;;;20.80;48.00;;;;;;4988220;28;20181;-71
2022/04/19 09:20:31;;;;;;;1.70;1.60;;;20.80;47.70;;;;;;4988605;28;20341;-73
2022/04/19 09:23:04;;;;;;;3.03;1.63;;;20.80;48.10;;;;;;4940234;28;20281;-71
2022/04/19 09:25:32;;;;;;;1.90;1.65;;;20.80;48.10;;;;;;4972351;28;20644;-71
2022/04/19 09:28:00;;;;;;;1.85;1.75;;;20.80;47.90;;;;;;4972363;28;20210;-71
2022/04/19 09:30:31;;;;;;;1.77;1.47;;;20.80;48.00;;;;;;4971935;28;20679;-71
2022/04/19 09:33:04;;;;;;;1.55;1.45;;;20.80;48.00;;;;;;4972199;28;20244;-71
2022/04/19 09:35:50;;;;;;;2.45;1.80;;;20.90;48.50;;;;;;4972314;28;20186;-72
2022/04/19 09:38:18;;;;;;;1.98;1.52;;;20.90;48.20;;;;;;4949552;28;20221;-71
2022/04/19 09:40:47;;;;;;;3.20;1.58;;;20.90;48.10;;;;;;5007010;28;20187;-70
2022/04/19 09:43:20;;;;;;;1.50;1.40;;;20.90;48.10;;;;;;5011173;28;20192;-69
2022/04/19 09:45:58;;;;;;;2.47;1.80;;;20.90;48.00;;;;;;5011163;28;20191;-72
2022/04/19 09:48:35;;;;;;;1.55;1.30;;;20.90;48.00;;;;;;4994857;28;20204;-71
2022/04/19 09:51:05;;;;;;;3.97;1.40;;;20.90;48.20;;;;;;5011048;28;20245;-71
2022/04/19 09:53:48;;;;;;;1.80;1.20;;;20.90;48.40;;;;;;5011252;28;20230;-71
2022/04/19 09:56:20;;;;;;;3.20;1.70;;;20.90;48.30;;;;;;5011157;28;20203;-72
2022/04/19 09:58:50;;;;;;;1.38;1.20;;;20.90;48.20;;;;;;5012136;28;20290;-71
2022/04/19 10:09:36;;;;;;;1.80;1.40;;;20.90;48.40;;;;;;5050074;22;20241;-74
2022/04/19 10:12:10;;;;;;;2.03;1.85;;;20.90;48.10;;;;;;5017984;28;20691;-74
2022/04/19 10:14:36;;;;;;;3.70;1.55;;;20.90;48.00;;;;;;5034607;28;20206;-74
2022/04/19 10:17:04;;;;;;;1.65;1.55;;;20.80;48.10;;;;;;5017971;28;20643;-75
2022/04/19 10:19:32;;;;;;;2.55;1.85;;;20.90;48.50;;;;;;5035482;28;20249;-75
2022/04/19 10:22:08;;;;;;;1.40;1.30;;;20.80;48.20;;;;;;5017809;28;20189;-74
2022/04/19 10:24:45;;;;;;;1.63;1.52;;;20.80;48.60;;;;;;5017868;28;20557;-75
2022/04/19 10:27:11;;;;;;;2.55;1.58;;;20.80;48.00;;;;;;5017993;28;20191;-75
2022/04/19 10:29:37;;;;;;;1.75;1.40;;;20.90;48.50;;;;;;5017439;28;20210;-74
2022/04/19 10:32:06;;;;;;;3.67;1.60;;;20.90;48.40;;;;;;5033916;28;20257;-75
2022/04/19 10:34:39;;;;;;;3.03;1.40;;;20.90;48.40;;;;;;5002279;28;20181;-75
2022/04/19 10:37:21;;;;;;;1.70;1.50;;;20.90;48.30;;;;;;5003503;28;20245;-75
2022/04/19 10:40:03;;;;;;;3.05;1.50;;;20.90;48.80;;;;;;5025406;28;20272;-75
2022/04/19 10:42:35;;;;;;;2.05;1.60;;;20.90;48.50;;;;;;5017906;28;20183;-75
2022/04/19 10:45:13;;;;;;;2.40;1.50;;;20.90;48.40;;;;;;5034465;28;20222;-75
2022/04/19 10:47:51;;;;;;;2.53;1.55;;;20.90;48.70;;;;;;5033955;28;20190;-75
2022/04/19 10:50:34;;;;;;;1.67;1.40;;;20.90;48.50;;;;;;5017213;28;20218;-75
2022/04/19 10:53:05;;;;;;;1.73;1.58;;;20.90;48.40;;;;;;5017365;28;20187;-74
2022/04/19 10:55:34;;;;;;;1.40;1.30;;;20.90;48.60;;;;;;5033858;28;20176;-75
2022/04/19 10:58:18;;;;;;;1.90;1.40;;;20.90;48.60;;;;;;5033674;28;20187;-74
2022/04/19 11:00:55;;;;;;;1.40;1.30;;;20.90;48.60;;;;;;5013915;28;20214;-74
2022/04/19 11:03:33;;;;;;;2.08;1.60;;;20.90;48.80;;;;;;5014124;28;20178;-75
2022/04/19 11:06:02;;;;;;;2.30;1.30;;;20.90;48.50;;;;;;5014192;28;20203;-74
2022/04/19 11:08:30;;;;;;;1.30;1.20;;;20.90;48.60;;;;;;5013442;28;20246;-73
2022/04/19 11:10:56;;;;;;;2.45;1.55;;;20.90;48.70;;;;;;4997179;28;20218;-73
2022/04/19 11:13:27;;;;;;;1.40;1.30;;;20.90;48.90;;;;;;5013951;28;20187;-71
2022/04/19 11:16:07;;;;;;;3.65;1.55;;;20.90;49.00;;;;;;5013145;28;20204;-74
2022/04/19 11:18:39;;;;;;;2.95;1.40;;;20.90;48.70;;;;;;5013688;28;20299;-74
2022/04/19 11:21:13;;;;;;;1.77;1.40;;;20.90;48.80;;;;;;5013424;28;20179;-76
2022/04/19 11:23:47;;;;;;;1.33;1.10;;;20.90;48.80;;;;;;5013129;28;20211;-74
2022/04/19 11:26:41;;;;;;;1.20;1.10;;;20.90;48.80;;;;;;5014668;28;20191;-74
2022/04/19 11:29:10;;;;;;;1.63;1.42;;;20.90;48.60;;;;;;5010991;28;20723;-74
2022/04/19 11:31:56;;;;;;;2.17;1.30;;;20.90;48.70;;;;;;5013457;28;20227;-75
2022/04/19 11:34:23;;;;;;;2.13;1.50;;;20.90;48.40;;;;;;5013147;28;20191;-74
2022/04/19 11:36:49;;;;;;;2.40;1.23;;;20.90;48.80;;;;;;5017821;28;20172;-74
2022/04/19 11:47:57;;;;;;;2.72;1.20;;;20.90;48.50;;;;;;5013390;28;20195;-74
2022/04/19 11:50:27;;;;;;;2.50;1.40;;;20.90;48.50;;;;;;4996375;28;20200;-75
2022/04/19 11:52:53;;;;;;;1.45;1.20;;;20.90;48.80;;;;;;5013096;28;20251;-75
2022/04/19 11:55:24;;;;;;;3.38;1.63;;;20.90;48.60;;;;;;4996864;28;20187;-75
2022/04/19 11:58:05;;;;;;;1.40;1.30;;;20.90;48.40;;;;;;4996648;28;20188;-74
2022/04/19 12:00:32;;;;;;;2.25;1.30;;;20.90;48.50;;;;;;4996324;28;20184;-75
2022/04/19 12:03:02;;;;;;;1.23;1.13;;;20.90;48.70;;;;;;4996758;28;20238;-75
2022/04/19 12:05:30;;;;;;;1.30;1.20;;;20.90;48.40;;;;;;4996538;28;20207;-75
2022/04/19 12:07:56;;;;;;;2.72;1.33;;;20.90;48.70;;;;;;5013966;28;20191;-75
2022/04/19 12:10:23;;;;;;;1.55;1.20;;;20.90;48.40;;;;;;4995845;28;20274;-75
2022/04/19 12:12:51;;;;;;;1.50;1.40;;;20.90;48.60;;;;;;4996345;28;20246;-74
2022/04/19 12:15:40;;;;;;;2.60;1.50;;;20.90;48.80;;;;;;4996182;28;20184;-75
2022/04/19 12:18:10;;;;;;;1.42;1.30;;;20.90;48.70;;;;;;5012486;28;20191;-74
2022/04/19 12:20:44;;;;;;;1.60;1.30;;;20.90;48.60;;;;;;5013587;28;20176;-75
2022/04/19 12:23:18;;;;;;;4.20;1.60;;;20.90;48.40;;;;;;4996139;28;20180;-75
2022/04/19 12:25:58;;;;;;;1.52;1.20;;;20.90;48.20;;;;;;4995691;28;20184;-75
2022/04/19 12:28:45;;;;;;;2.28;1.30;;;20.90;48.40;;;;;;5011971;28;20191;-75
2022/04/19 12:31:34;;;;;;;1.40;1.30;;;20.90;48.50;;;;;;4979401;28;20602;-75
2022/04/19 12:34:06;;;;;;;1.67;1.50;;;20.90;48.40;;;;;;4995823;28;20287;-75
2022/04/19 12:36:45;;;;;;;2.60;1.30;;;20.90;48.30;;;;;;4998707;28;20302;-74
2022/04/19 12:39:11;;;;;;;1.52;1.20;;;20.90;48.80;;;;;;5031592;28;20210;-75
2022/04/19 12:41:43;;;;;;;1.75;1.40;;;20.90;48.20;;;;;;5031774;28;20183;-75
2022/04/19 12:44:18;;;;;;;2.30;1.20;;;20.90;48.20;;;;;;5015553;28;20189;-74
2022/04/19 12:46:50;;;;;;;3.38;1.15;;;20.90;48.20;;;;;;5015524;28;20202;-73
2022/04/19 12:49:26;;;;;;;1.63;1.10;;;20.90;48.20;;;;;;5033540;28;20203;-75
2022/04/19 12:52:09;;;;;;;1.83;0.90;;;20.90;48.50;;;;;;5050188;28;20292;-74
2022/04/19 12:54:38;;;;;;;1.80;1.42;;;20.90;48.50;;;;;;5041908;28;20171;-74
2022/04/19 12:57:12;;;;;;;2.20;1.40;;;20.90;48.60;;;;;;5015090;28;20198;-73
2022/04/19 12:59:38;;;;;;;1.48;1.15;;;20.90;48.50;;;;;;5003126;28;20268;-75
2022/04/19 13:02:04;;;;;;;1.80;1.38;;;20.90;48.10;;;;;;4995409;28;20249;-75
2022/04/19 13:04:29;;;;;;;1.75;1.20;;;20.90;48.40;;;;;;5012890;28;20184;-74
2022/04/19 13:12:32;;;;;;;1.95;1.05;;;20.90;48.40;;;;;;4995174;28;20229;-76
2022/04/19 13:15:01;;;;;;;2.47;1.08;;;20.90;48.20;;;;;;4979420;28;20184;-75
2022/04/19 13:17:31;;;;;;;1.20;1.10;;;20.90;48.30;;;;;;4995421;28;20180;-74
2022/04/19 13:19:57;;;;;;;1.40;1.13;;;20.90;48.40;;;;;;4994960;28;20199;-75
2022/04/19 13:22:22;;;;;;;1.15;1.00;;;20.90;48.30;;;;;;4978827;28;20648;-75
2022/04/19 13:24:50;;;;;;;2.30;1.50;;;20.90;48.30;;;;;;4995072;28;20184;-75
2022/04/19 13:27:17;;;;;;;1.20;1.10;;;20.90;48.30;;;;;;4995539;28;20250;-74
2022/04/19 13:29:43;;;;;;;1.25;1.15;;;20.90;48.20;;;;;;4995119;28;20212;-72
2022/04/19 13:32:11;;;;;;;2.25;1.33;;;20.90;48.20;;;;;;4994911;28;20275;-76
2022/04/19 13:34:39;;;;;;;1.88;1.30;;;20.90;48.10;;;;;;4995131;28;20188;-76
2022/04/19 13:37:07;;;;;;;1.60;1.05;;;20.90;48.10;;;;;;4999189;28;20238;-76
2022/04/19 13:39:32;;;;;;;1.88;1.10;;;20.90;48.30;;;;;;4998209;28;20218;-76
2022/04/19 13:41:58;;;;;;;1.58;1.30;;;20.90;48.50;;;;;;5017693;28;20195;-75
2022/04/19 13:44:25;;;;;;;2.20;1.27;;;20.90;48.20;;;;;;5044301;28;20197;-75
2022/04/19 13:46:52;;;;;;;1.23;1.13;;;20.90;48.60;;;;;;5020987;28;20183;-75
2022/04/19 13:49:18;;;;;;;1.65;1.20;;;20.90;48.60;;;;;;5038484;28;20226;-76